Grand Saline, Texas
Current Conditions -  °F | °C
As of 2:35 PM on Monday 26 Jan 2015 (Local Time) from KJDD Reporting Station
Clear Clear  
Wind Chill: 66°   Ceiling: Unl
Heat Index: 66°   Visibility: 10mi
Dew Point: 28°   Wind: 9mph
Humidity: 24%   Direction: 240°WSW
Pressure: 30.11"   Gusts: NA
Location:  32.67°N, 95.71°W
Report Text: KJDD 262035Z AUTO 24008KT 10SM CLR 19/M02 A3011 RMK AO2
Loading
Personal Weather Stations






























Interactive Weather Map New forecast layout! Learn more

10-Day Weather Forecast

Advertisements
Track Severe Weather on mobile